Time;durP1;ratioP1;P1;durP2;ratioP2;P2;SDS_P1;SDS_P2;PMS_P1;PMS_P2;Temp;Humidity;BMP_temperature;BMP_pressure;BME280_temperature;BME280_humidity;BME280_pressure;Samples;Min_cycle;Max_cycle;Signal;HPM_P1;HPM_P2
2022/12/11 00:02:08;;;;;;;15.40;8.90;;;-1.80;99.90;;;;;;5039723;28;20177;-56
2022/12/11 00:04:34;;;;;;;15.60;8.50;;;-1.80;99.90;;;;;;5033951;28;20176;-57
2022/12/11 00:06:59;;;;;;;16.60;9.23;;;-1.90;99.90;;;;;;5033190;28;20179;-58
2022/12/11 00:09:25;;;;;;;21.10;9.90;;;-1.90;99.90;;;;;;5036045;28;20189;-57
2022/12/11 00:11:51;;;;;;;15.80;8.73;;;-1.90;99.90;;;;;;5033475;28;20177;-57
2022/12/11 00:14:17;;;;;;;19.83;10.13;;;-2.00;99.90;;;;;;5037561;28;20462;-56
2022/12/11 00:16:42;;;;;;;17.67;10.10;;;-2.00;99.90;;;;;;5040934;28;20629;-59
2022/12/11 00:19:08;;;;;;;40.10;14.20;;;-2.00;99.90;;;;;;5033940;28;20209;-56
2022/12/11 00:21:33;;;;;;;24.23;11.63;;;-2.10;99.90;;;;;;5031362;28;20812;-59
2022/12/11 00:23:59;;;;;;;23.50;10.53;;;-2.10;99.90;;;;;;5036153;28;20170;-56
2022/12/11 00:26:25;;;;;;;20.60;10.50;;;-2.20;99.90;;;;;;5041249;28;20885;-55
2022/12/11 00:28:54;;;;;;;19.83;11.00;;;-2.20;99.90;;;;;;5048220;28;20428;-57
2022/12/11 00:31:21;;;;;;;19.00;10.77;;;-2.30;99.90;;;;;;5042578;28;20470;-58
2022/12/11 00:33:50;;;;;;;18.13;10.03;;;-2.20;99.90;;;;;;5031915;28;20467;-58
2022/12/11 00:36:19;;;;;;;20.67;10.10;;;-2.20;99.90;;;;;;5030495;28;20515;-56
2022/12/11 00:38:45;;;;;;;20.90;11.43;;;-2.20;99.90;;;;;;5036247;28;20443;-56
2022/12/11 00:41:11;;;;;;;22.97;10.70;;;-2.20;99.90;;;;;;5036634;28;20423;-57
2022/12/11 00:43:37;;;;;;;18.80;10.63;;;-2.10;99.90;;;;;;5047603;28;20914;-56
2022/12/11 00:46:03;;;;;;;21.77;10.30;;;-2.10;99.90;;;;;;5039847;28;20449;-56
2022/12/11 00:48:29;;;;;;;18.27;10.80;;;-2.10;99.90;;;;;;5045094;28;20184;-57
2022/12/11 00:50:54;;;;;;;20.00;10.60;;;-2.00;99.90;;;;;;5040617;28;20631;-56
2022/12/11 00:53:20;;;;;;;22.07;11.43;;;-2.00;99.90;;;;;;5043512;28;20206;-57
2022/12/11 00:55:46;;;;;;;19.13;11.00;;;-2.00;99.90;;;;;;5044197;28;20173;-55
2022/12/11 00:58:12;;;;;;;24.50;12.07;;;-2.10;99.90;;;;;;5040556;28;20778;-57
2022/12/11 01:00:39;;;;;;;22.33;11.87;;;-2.00;99.90;;;;;;5040134;28;20168;-57
2022/12/11 01:03:05;;;;;;;21.20;10.10;;;-2.10;99.90;;;;;;5040153;28;20848;-56
2022/12/11 01:05:31;;;;;;;17.93;9.70;;;-2.10;99.90;;;;;;5041996;28;20543;-56
2022/12/11 01:07:57;;;;;;;19.80;9.77;;;-2.10;99.90;;;;;;5042926;28;20474;-55
2022/12/11 01:10:23;;;;;;;18.97;10.10;;;-2.10;99.90;;;;;;5038890;28;20465;-56
2022/12/11 01:12:51;;;;;;;23.80;11.30;;;-2.10;99.90;;;;;;5038643;28;20407;-56
2022/12/11 01:15:18;;;;;;;18.90;10.33;;;-2.10;99.90;;;;;;5042530;28;20427;-56
2022/12/11 01:17:44;;;;;;;20.53;10.33;;;-2.20;99.90;;;;;;5039268;28;20444;-58
2022/12/11 01:20:11;;;;;;;23.53;11.67;;;-2.10;99.90;;;;;;5041269;28;20955;-56
2022/12/11 01:22:36;;;;;;;22.17;11.30;;;-2.20;99.90;;;;;;5042925;28;20501;-57
2022/12/11 01:25:02;;;;;;;19.17;9.70;;;-2.20;99.90;;;;;;5044354;28;20526;-56
2022/12/11 01:27:28;;;;;;;21.50;11.00;;;-2.20;99.90;;;;;;5051166;28;20177;-57
2022/12/11 01:29:53;;;;;;;19.00;10.27;;;-2.20;99.90;;;;;;5037488;28;20431;-56
2022/12/11 01:32:19;;;;;;;20.60;10.73;;;-2.20;99.90;;;;;;5036598;28;20203;-57
2022/12/11 01:34:45;;;;;;;21.90;11.00;;;-2.20;99.90;;;;;;5052013;28;20226;-57
2022/12/11 01:37:10;;;;;;;21.00;11.03;;;-2.20;99.90;;;;;;5040622;28;20176;-57
2022/12/11 01:39:37;;;;;;;23.97;10.23;;;-2.30;99.90;;;;;;5044309;28;20186;-55
2022/12/11 01:42:05;;;;;;;21.20;10.90;;;-2.40;99.90;;;;;;5035788;28;20257;-55
2022/12/11 01:44:31;;;;;;;22.33;10.50;;;-2.40;99.90;;;;;;5041022;28;20805;-58
2022/12/11 01:46:57;;;;;;;19.53;11.27;;;-2.50;99.90;;;;;;5038343;28;20505;-56
2022/12/11 01:49:25;;;;;;;20.33;10.60;;;-2.50;99.90;;;;;;5049029;28;20213;-57
2022/12/11 01:52:01;;;;;;;15.50;8.93;;;-2.60;99.90;;;;;;5052701;28;20392;-57
2022/12/11 01:54:28;;;;;;;17.20;9.57;;;-2.70;99.90;;;;;;5034790;28;20780;-56
2022/12/11 01:56:59;;;;;;;18.07;8.60;;;-2.70;99.90;;;;;;5047023;28;20433;-55
2022/12/11 01:59:27;;;;;;;18.80;9.70;;;-2.80;99.90;;;;;;5052491;28;20473;-56
2022/12/11 02:01:58;;;;;;;18.10;9.60;;;-2.80;99.90;;;;;;5040599;28;20439;-56
2022/12/11 02:04:24;;;;;;;30.03;10.43;;;-2.90;99.90;;;;;;5058274;22;20494;-59
2022/12/11 02:06:51;;;;;;;24.53;10.30;;;-2.90;99.90;;;;;;5002999;28;20441;-56
2022/12/11 02:09:30;;;;;;;18.97;10.77;;;-2.90;99.90;;;;;;4992186;28;20974;-55
2022/12/11 02:12:19;;;;;;;26.13;12.37;;;-2.90;99.90;;;;;;4989075;28;20473;-55
2022/12/11 02:15:11;;;;;;;30.70;10.93;;;-2.90;99.90;;;;;;4991391;28;20525;-56
2022/12/11 02:17:53;;;;;;;26.90;11.30;;;-3.00;99.90;;;;;;4986680;28;20525;-55
2022/12/11 02:20:42;;;;;;;20.73;10.47;;;-3.00;99.90;;;;;;4991398;28;20418;-56
2022/12/11 02:23:30;;;;;;;20.13;9.80;;;-3.10;99.90;;;;;;4960101;28;20530;-55
2022/12/11 02:26:23;;;;;;;27.20;12.20;;;-3.10;99.90;;;;;;4982012;28;20441;-54
2022/12/11 02:29:01;;;;;;;23.57;10.93;;;-3.20;99.90;;;;;;4990468;28;20446;-57
2022/12/11 02:31:37;;;;;;;22.37;11.00;;;-3.20;99.90;;;;;;4984589;28;20982;-58
2022/12/11 02:34:17;;;;;;;26.30;11.77;;;-3.30;99.90;;;;;;4987047;28;20546;-61
2022/12/11 02:36:48;;;;;;;25.43;11.27;;;-3.40;99.90;;;;;;4988846;28;21130;-57
2022/12/11 02:39:16;;;;;;;21.97;10.70;;;-3.50;99.90;;;;;;4987651;28;20440;-58
2022/12/11 02:41:47;;;;;;;17.90;10.10;;;-3.60;99.90;;;;;;4984365;28;20531;-55
2022/12/11 02:44:16;;;;;;;21.17;10.40;;;-3.70;99.90;;;;;;4988802;28;20465;-54
2022/12/11 02:46:43;;;;;;;21.60;10.63;;;-3.70;99.90;;;;;;4983852;28;20446;-55
2022/12/11 02:49:10;;;;;;;20.50;10.40;;;-3.80;99.90;;;;;;4989010;28;20476;-54
2022/12/11 02:51:39;;;;;;;17.23;9.13;;;-3.90;99.90;;;;;;4990350;28;20469;-54
2022/12/11 02:54:10;;;;;;;18.37;9.40;;;-4.00;99.90;;;;;;4991000;28;20962;-56
2022/12/11 02:56:57;;;;;;;17.00;9.33;;;-4.10;99.90;;;;;;4989736;28;20758;-51
2022/12/11 02:59:29;;;;;;;16.07;9.50;;;-4.10;99.90;;;;;;4992911;28;20405;-55
2022/12/11 03:01:54;;;;;;;23.73;10.27;;;-4.20;99.90;;;;;;4984996;28;20481;-64
2022/12/11 03:04:23;;;;;;;21.30;10.30;;;-4.20;99.90;;;;;;4991252;28;20972;-54
2022/12/11 03:06:53;;;;;;;21.27;10.93;;;-4.20;99.90;;;;;;4992064;28;20188;-55
2022/12/11 03:09:19;;;;;;;19.10;9.83;;;-4.30;99.90;;;;;;4985294;28;20435;-56
2022/12/11 03:11:45;;;;;;;21.10;11.27;;;-4.30;99.90;;;;;;4983058;28;20449;-55
2022/12/11 03:14:12;;;;;;;18.33;10.23;;;-4.30;99.90;;;;;;4990474;28;21047;-55
2022/12/11 03:16:54;;;;;;;26.63;11.97;;;-4.20;99.90;;;;;;4986556;28;20180;-54
2022/12/11 03:20:03;;;;;;;27.03;12.90;;;-4.20;99.90;;;;;;4989196;28;20518;-57
2022/12/11 03:22:37;;;;;;;30.47;13.60;;;-4.10;99.90;;;;;;4933568;28;20446;-55
2022/12/11 03:25:08;;;;;;;26.30;11.67;;;-4.00;99.90;;;;;;4989300;28;20456;-54
2022/12/11 03:28:00;;;;;;;23.43;11.80;;;-4.00;99.90;;;;;;4990450;28;20467;-55
2022/12/11 03:30:29;;;;;;;23.37;11.90;;;-4.00;99.90;;;;;;4973965;28;20678;-58
2022/12/11 03:33:00;;;;;;;28.60;11.47;;;-3.90;99.90;;;;;;4984288;28;21081;-53
2022/12/11 03:35:45;;;;;;;19.83;9.87;;;-3.80;99.90;;;;;;4989353;28;20441;-55
2022/12/11 03:38:18;;;;;;;17.00;9.70;;;-3.70;99.90;;;;;;5004844;28;20803;-56
2022/12/11 03:40:47;;;;;;;17.23;9.80;;;-3.60;99.90;;;;;;4984592;28;20488;-58
2022/12/11 03:43:15;;;;;;;22.40;11.50;;;-3.50;99.90;;;;;;4994317;28;20458;-59
2022/12/11 03:45:42;;;;;;;18.67;10.40;;;-3.40;99.90;;;;;;4999783;28;20507;-58
2022/12/11 03:48:10;;;;;;;23.13;10.23;;;-3.40;99.90;;;;;;4985776;28;20443;-56
2022/12/11 03:50:36;;;;;;;19.17;9.87;;;-3.30;99.90;;;;;;4990272;28;20445;-57
2022/12/11 03:53:03;;;;;;;24.40;11.13;;;-3.30;99.90;;;;;;5001273;28;20449;-61
2022/12/11 03:55:31;;;;;;;18.93;10.00;;;-3.30;99.90;;;;;;5010962;28;20466;-62
2022/12/11 03:57:56;;;;;;;25.40;11.63;;;-3.30;99.90;;;;;;5009515;28;20754;-59
2022/12/11 04:00:22;;;;;;;22.53;11.10;;;-3.30;99.90;;;;;;4993662;28;20458;-55
2022/12/11 04:03:11;;;;;;;18.63;9.47;;;-3.40;99.90;;;;;;4983437;28;20186;-55
2022/12/11 04:05:34;;;;;;;21.20;9.90;;;-3.40;99.90;;;;;;4981863;28;20214;-56
2022/12/11 04:07:59;;;;;;;22.80;11.60;;;-3.40;99.90;;;;;;4973974;28;20464;-56
2022/12/11 04:10:25;;;;;;;28.77;13.03;;;-3.40;99.90;;;;;;4980420;28;20893;-57
2022/12/11 04:12:51;;;;;;;24.40;10.97;;;-3.50;99.90;;;;;;4978812;28;20206;-55
2022/12/11 04:15:16;;;;;;;18.67;10.27;;;-3.50;99.90;;;;;;4985513;28;20195;-54
2022/12/11 04:26:17;;;;;;;17.60;9.87;;;-3.70;99.90;;;;;;5011080;28;20464;-65
2022/12/11 04:28:43;;;;;;;17.90;9.27;;;-3.70;99.90;;;;;;5003843;28;20425;-60
2022/12/11 04:31:15;;;;;;;20.70;10.13;;;-3.70;99.90;;;;;;5010621;28;20449;-61
2022/12/11 04:33:41;;;;;;;17.20;9.93;;;-3.80;99.90;;;;;;5009167;28;20513;-53
2022/12/11 04:36:08;;;;;;;21.17;10.20;;;-3.80;99.90;;;;;;4985004;28;20968;-55
2022/12/11 04:38:34;;;;;;;18.07;9.73;;;-3.80;99.90;;;;;;4980302;28;20430;-55
2022/12/11 04:41:01;;;;;;;17.87;10.67;;;-3.80;99.90;;;;;;4980311;28;20926;-55
2022/12/11 04:43:27;;;;;;;23.20;10.77;;;-3.90;99.90;;;;;;4980751;28;20488;-57
2022/12/11 04:46:07;;;;;;;22.30;11.50;;;-3.90;99.90;;;;;;4987101;28;20454;-59
2022/12/11 04:48:33;;;;;;;20.70;10.73;;;-4.00;99.90;;;;;;4986613;28;20440;-59
2022/12/11 04:50:59;;;;;;;21.50;10.80;;;-4.00;99.90;;;;;;4986412;28;21093;-57
2022/12/11 04:53:26;;;;;;;19.13;10.10;;;-4.00;99.90;;;;;;4992736;28;20483;-56
2022/12/11 04:55:52;;;;;;;24.53;11.40;;;-4.00;99.90;;;;;;4989182;28;20179;-56
2022/12/11 04:58:17;;;;;;;17.20;10.23;;;-4.00;99.90;;;;;;4992711;28;20429;-59
2022/12/11 05:00:43;;;;;;;20.73;10.63;;;-4.00;99.90;;;;;;4986118;28;20193;-57
2022/12/11 05:03:09;;;;;;;18.47;10.23;;;-4.00;99.90;;;;;;4985985;28;20172;-56
2022/12/11 05:05:35;;;;;;;24.50;10.13;;;-4.00;99.90;;;;;;4983885;28;20209;-57
2022/12/11 05:08:00;;;;;;;20.37;10.60;;;-3.90;99.90;;;;;;4988710;28;20478;-56
2022/12/11 05:10:26;;;;;;;19.67;11.23;;;-3.90;99.90;;;;;;4984205;28;20242;-58
2022/12/11 05:12:52;;;;;;;18.53;9.67;;;-3.90;99.90;;;;;;4985790;28;20203;-55
2022/12/11 05:15:17;;;;;;;19.70;9.47;;;-3.90;99.90;;;;;;4987569;28;20215;-56
2022/12/11 05:17:43;;;;;;;19.63;9.80;;;-4.00;99.90;;;;;;4979442;28;20207;-57
2022/12/11 05:20:09;;;;;;;19.27;9.87;;;-4.00;99.90;;;;;;4978737;28;20177;-56
2022/12/11 05:22:35;;;;;;;16.00;9.03;;;-4.10;99.90;;;;;;4986175;28;20177;-60
2022/12/11 05:25:01;;;;;;;26.87;10.53;;;-4.20;99.90;;;;;;4994938;28;20437;-54
2022/12/11 05:27:27;;;;;;;18.17;8.93;;;-4.20;99.90;;;;;;4980721;28;20446;-58
2022/12/11 05:29:52;;;;;;;20.67;10.87;;;-4.20;99.90;;;;;;4990223;28;20289;-55
2022/12/11 05:32:18;;;;;;;19.53;10.10;;;-4.20;99.90;;;;;;4982025;28;20174;-57
2022/12/11 05:34:43;;;;;;;19.93;9.63;;;-4.20;99.90;;;;;;4981572;28;20233;-56
2022/12/11 05:37:09;;;;;;;19.87;9.80;;;-4.20;99.90;;;;;;4978687;28;20301;-58
2022/12/11 05:39:35;;;;;;;20.97;10.40;;;-4.10;99.90;;;;;;4987376;28;20170;-56
2022/12/11 05:42:00;;;;;;;19.53;9.70;;;-4.10;99.90;;;;;;4981360;28;20529;-56
2022/12/11 05:44:26;;;;;;;18.27;9.30;;;-4.10;99.90;;;;;;4986605;28;20551;-56
2022/12/11 05:46:52;;;;;;;19.23;9.50;;;-4.20;99.90;;;;;;4978627;28;20190;-56
2022/12/11 05:49:17;;;;;;;13.50;8.23;;;-4.20;99.90;;;;;;4981364;28;20194;-58
2022/12/11 05:51:43;;;;;;;17.77;8.47;;;-4.30;99.90;;;;;;4972452;28;20506;-55
2022/12/11 05:54:10;;;;;;;16.47;8.63;;;-4.40;99.90;;;;;;4987036;28;20726;-53
2022/12/11 05:56:36;;;;;;;16.97;8.47;;;-4.50;99.90;;;;;;4980422;28;20195;-58
2022/12/11 05:59:04;;;;;;;17.03;9.30;;;-4.60;99.90;;;;;;4984139;28;20417;-56
2022/12/11 06:01:32;;;;;;;18.47;9.30;;;-4.70;99.90;;;;;;4997457;28;20887;-56
2022/12/11 06:03:58;;;;;;;20.30;9.83;;;-4.80;99.90;;;;;;4984745;28;20465;-54
2022/12/11 06:06:25;;;;;;;16.77;9.60;;;-4.80;99.90;;;;;;4977698;28;20428;-57
2022/12/11 06:08:52;;;;;;;18.77;10.33;;;-4.80;99.90;;;;;;4986982;28;20422;-55
2022/12/11 06:11:19;;;;;;;20.73;9.70;;;-4.90;99.90;;;;;;4985153;28;20556;-57
2022/12/11 06:13:44;;;;;;;16.87;9.53;;;-4.90;99.90;;;;;;4990152;28;20469;-53
2022/12/11 06:16:10;;;;;;;19.20;10.60;;;-5.00;99.90;;;;;;4985189;28;20452;-53
2022/12/11 06:18:41;;;;;;;27.37;11.17;;;-5.00;99.90;;;;;;5006097;28;20647;-57
2022/12/11 06:21:11;;;;;;;22.80;10.67;;;-5.00;99.90;;;;;;4988501;28;20267;-57
2022/12/11 06:23:37;;;;;;;23.40;10.87;;;-5.00;99.90;;;;;;4988501;28;20501;-54
2022/12/11 06:26:03;;;;;;;24.17;12.37;;;-5.00;99.90;;;;;;4991910;28;20442;-55
2022/12/11 06:28:28;;;;;;;20.23;10.17;;;-5.00;99.90;;;;;;4993966;28;20542;-55
2022/12/11 06:30:57;;;;;;;21.33;10.03;;;-5.10;99.90;;;;;;4994521;28;20427;-56
2022/12/11 06:33:23;;;;;;;20.47;10.50;;;-5.20;99.90;;;;;;5010755;28;20197;-59
2022/12/11 06:35:48;;;;;;;20.80;10.30;;;-5.20;99.90;;;;;;5011353;28;20419;-60
2022/12/11 06:38:14;;;;;;;23.20;10.80;;;-5.20;99.90;;;;;;5013678;28;20155;-60
2022/12/11 06:40:40;;;;;;;20.27;10.47;;;-5.20;99.90;;;;;;4992115;28;20195;-57
2022/12/11 06:43:05;;;;;;;19.90;9.97;;;-5.30;99.90;;;;;;4985758;28;20178;-57
2022/12/11 06:45:31;;;;;;;23.80;10.10;;;-5.30;99.90;;;;;;4982740;28;20195;-54
2022/12/11 06:47:57;;;;;;;23.33;11.10;;;-5.40;99.90;;;;;;4989635;28;20178;-55
2022/12/11 06:50:23;;;;;;;22.47;10.43;;;-5.50;99.90;;;;;;4987564;28;20656;-55
2022/12/11 06:52:48;;;;;;;21.10;10.40;;;-5.60;99.90;;;;;;5001212;28;20461;-55
2022/12/11 06:55:14;;;;;;;22.23;10.83;;;-5.60;99.90;;;;;;4986123;28;20623;-55
2022/12/11 06:57:40;;;;;;;26.53;12.80;;;-5.70;99.90;;;;;;5003376;28;20174;-56
2022/12/11 07:00:06;;;;;;;25.43;12.63;;;-5.70;99.90;;;;;;4987859;28;20179;-55
2022/12/11 07:02:31;;;;;;;29.00;13.10;;;-5.70;99.90;;;;;;4989335;28;20919;-53
2022/12/11 07:04:57;;;;;;;20.00;10.37;;;-5.70;99.90;;;;;;4991033;28;20521;-55
2022/12/11 07:07:23;;;;;;;24.67;10.67;;;-5.70;99.90;;;;;;4992943;28;20182;-57
2022/12/11 07:09:48;;;;;;;24.10;11.30;;;-5.70;99.90;;;;;;4997405;28;20242;-58
2022/12/11 07:12:15;;;;;;;28.30;12.67;;;-5.80;99.90;;;;;;5005527;28;20170;-65
2022/12/11 07:14:41;;;;;;;27.30;13.93;;;-5.80;99.90;;;;;;5007322;28;20195;-59
2022/12/11 07:17:06;;;;;;;27.47;14.07;;;-5.80;99.90;;;;;;4996403;28;20443;-54
2022/12/11 07:19:32;;;;;;;29.70;13.13;;;-5.80;99.90;;;;;;4992312;28;20294;-54
2022/12/11 07:21:57;;;;;;;25.60;11.30;;;-5.80;99.90;;;;;;4990366;28;20197;-56
2022/12/11 07:24:23;;;;;;;34.70;14.30;;;-5.90;99.90;;;;;;4988110;28;20337;-54
2022/12/11 07:26:49;;;;;;;30.17;13.47;;;-5.90;99.90;;;;;;4985777;28;20246;-55
2022/12/11 07:29:14;;;;;;;27.03;13.00;;;-5.90;99.90;;;;;;4985019;28;20179;-56
2022/12/11 07:31:40;;;;;;;29.47;12.83;;;-6.00;99.90;;;;;;4985173;28;20182;-56
2022/12/11 07:34:06;;;;;;;25.90;13.03;;;-6.00;99.90;;;;;;4982080;28;20214;-56
2022/12/11 07:36:33;;;;;;;32.60;13.93;;;-6.00;99.90;;;;;;4985451;28;20241;-55
2022/12/11 07:38:59;;;;;;;23.70;11.87;;;-6.10;99.90;;;;;;4987377;28;20464;-57
2022/12/11 07:41:27;;;;;;;23.73;12.40;;;-6.10;99.90;;;;;;4999647;28;20437;-55
2022/12/11 07:43:53;;;;;;;23.77;12.37;;;-6.10;99.90;;;;;;4988137;28;20460;-59
2022/12/11 07:46:23;;;;;;;24.30;11.30;;;-6.10;99.90;;;;;;4986010;28;20434;-55
2022/12/11 07:48:49;;;;;;;30.50;12.93;;;-6.10;99.90;;;;;;4995069;28;20460;-56
2022/12/11 07:51:26;;;;;;;24.23;12.13;;;-6.00;99.90;;;;;;4988759;28;20292;-54
2022/12/11 07:54:00;;;;;;;31.70;13.13;;;-6.00;99.90;;;;;;4989639;28;20197;-55
2022/12/11 07:56:28;;;;;;;26.60;13.23;;;-6.00;99.90;;;;;;4997328;28;20173;-54
2022/12/11 07:58:54;;;;;;;24.63;11.13;;;-6.00;99.90;;;;;;4996999;28;20433;-55
2022/12/11 08:01:27;;;;;;;23.27;11.50;;;-6.00;99.90;;;;;;4988202;28;20429;-56
2022/12/11 08:03:54;;;;;;;27.43;12.00;;;-6.00;99.90;;;;;;4995806;28;20259;-53
2022/12/11 08:06:25;;;;;;;30.00;13.70;;;-6.00;99.90;;;;;;4990607;28;20447;-57
2022/12/11 08:08:52;;;;;;;40.60;17.77;;;-6.00;99.90;;;;;;5019463;28;20429;-56
2022/12/11 08:11:17;;;;;;;36.00;16.47;;;-5.90;99.90;;;;;;5011386;28;20197;-59
2022/12/11 08:13:43;;;;;;;37.03;17.37;;;-5.90;99.90;;;;;;5008856;28;20470;-59
2022/12/11 08:16:11;;;;;;;36.17;17.20;;;-5.90;99.90;;;;;;5013165;22;20266;-56
2022/12/11 08:18:37;;;;;;;42.00;19.75;;;-5.80;99.90;;;;;;4968777;28;20176;-57
2022/12/11 08:21:11;;;;;;;39.00;18.47;;;-5.80;99.90;;;;;;4963920;28;20174;-57
2022/12/11 08:23:37;;;;;;;31.48;15.32;;;-5.80;99.90;;;;;;4965870;28;20972;-58
2022/12/11 08:26:07;;;;;;;29.53;13.40;;;-5.70;99.90;;;;;;4960950;28;20313;-59
2022/12/11 08:28:33;;;;;;;22.80;12.10;;;-5.70;99.90;;;;;;4952657;28;20440;-58
2022/12/11 08:30:58;;;;;;;28.43;12.20;;;-5.60;99.90;;;;;;4956065;28;20434;-58
2022/12/11 08:33:24;;;;;;;27.83;12.37;;;-5.50;99.90;;;;;;4957317;28;20272;-59
2022/12/11 08:35:50;;;;;;;26.27;13.23;;;-5.50;99.90;;;;;;4962294;28;20772;-58
2022/12/11 08:38:16;;;;;;;33.10;16.97;;;-5.40;99.90;;;;;;4953333;28;20489;-56
2022/12/11 08:40:42;;;;;;;30.10;14.40;;;-5.40;99.90;;;;;;4956332;28;20182;-57
2022/12/11 08:43:07;;;;;;;30.07;16.03;;;-5.40;99.90;;;;;;4959158;28;20179;-58
2022/12/11 08:45:33;;;;;;;25.87;13.30;;;-5.30;99.90;;;;;;4957512;28;20413;-59
2022/12/11 08:47:59;;;;;;;26.63;12.83;;;-5.30;99.90;;;;;;4964893;28;20194;-57
2022/12/11 08:50:25;;;;;;;25.37;12.07;;;-5.20;99.90;;;;;;4964164;28;20434;-57
2022/12/11 08:52:50;;;;;;;22.40;11.57;;;-5.20;99.90;;;;;;4959485;28;20206;-58
2022/12/11 08:55:16;;;;;;;25.67;12.40;;;-5.10;99.90;;;;;;4965312;28;22018;-57
2022/12/11 08:57:42;;;;;;;25.63;11.80;;;-5.00;99.90;;;;;;4966267;28;20222;-57
2022/12/11 09:00:11;;;;;;;25.10;13.17;;;-4.90;99.90;;;;;;4964681;28;20221;-57
2022/12/11 09:02:37;;;;;;;22.37;11.73;;;-4.90;99.90;;;;;;4960822;28;20184;-58
2022/12/11 09:05:06;;;;;;;31.40;14.83;;;-4.80;99.90;;;;;;4959478;28;20942;-57
2022/12/11 09:07:33;;;;;;;25.53;13.40;;;-4.80;99.90;;;;;;4957795;28;20525;-58
2022/12/11 09:09:58;;;;;;;28.13;13.80;;;-4.70;99.90;;;;;;4965821;28;20441;-58
2022/12/11 09:12:24;;;;;;;27.97;13.33;;;-4.60;99.90;;;;;;4968469;28;20448;-58
2022/12/11 09:14:50;;;;;;;26.27;11.17;;;-4.60;99.90;;;;;;4962140;28;20262;-57
2022/12/11 09:17:15;;;;;;;19.70;11.70;;;-4.70;99.90;;;;;;4962936;28;20879;-57
2022/12/11 09:19:41;;;;;;;24.47;12.67;;;-4.70;99.90;;;;;;4961733;28;20171;-56
2022/12/11 09:22:10;;;;;;;27.90;13.20;;;-4.70;99.90;;;;;;4961276;28;20180;-57
2022/12/11 09:24:36;;;;;;;21.00;10.73;;;-4.70;99.90;;;;;;4958283;28;20639;-63
2022/12/11 09:27:02;;;;;;;23.50;12.40;;;-4.60;99.90;;;;;;4947973;28;20468;-58
2022/12/11 09:29:28;;;;;;;30.83;13.77;;;-4.50;99.90;;;;;;4956066;28;20440;-57
2022/12/11 09:31:54;;;;;;;25.50;12.43;;;-4.50;99.90;;;;;;4956460;28;20454;-57
2022/12/11 09:34:20;;;;;;;25.57;13.43;;;-4.40;99.90;;;;;;4960691;28;20266;-56
2022/12/11 09:36:46;;;;;;;26.93;14.13;;;-4.30;99.90;;;;;;4957650;28;20215;-57
2022/12/11 09:39:13;;;;;;;26.77;12.93;;;-4.20;99.90;;;;;;4959553;28;20550;-58
2022/12/11 09:41:44;;;;;;;27.30;14.33;;;-4.10;99.90;;;;;;4961961;28;20246;-57
2022/12/11 09:44:10;;;;;;;30.30;14.10;;;-3.90;99.90;;;;;;4958115;28;20505;-58
2022/12/11 09:46:37;;;;;;;25.23;13.23;;;-3.90;99.90;;;;;;4956384;28;20483;-56
2022/12/11 09:49:09;;;;;;;26.50;13.70;;;-3.80;99.90;;;;;;4964637;28;20214;-56
2022/12/11 09:51:42;;;;;;;23.77;12.33;;;-3.70;99.90;;;;;;4966090;28;20440;-56
2022/12/11 09:54:12;;;;;;;23.07;12.47;;;-3.60;99.90;;;;;;4963886;28;20843;-58
2022/12/11 09:56:46;;;;;;;26.43;14.90;;;-3.60;99.90;;;;;;4964949;28;20454;-57
2022/12/11 09:59:31;;;;;;;24.03;13.07;;;-3.50;99.90;;;;;;4968807;28;20444;-57
2022/12/11 10:01:57;;;;;;;22.93;13.63;;;-3.50;99.90;;;;;;4964480;28;20864;-56
2022/12/11 10:04:46;;;;;;;28.27;13.17;;;-3.40;98.00;;;;;;4964955;28;20522;-57
2022/12/11 10:07:29;;;;;;;33.57;14.30;;;-3.50;98.40;;;;;;4965718;28;20613;-57
2022/12/11 10:10:04;;;;;;;24.80;13.70;;;-3.40;99.70;;;;;;4964898;28;20439;-58
2022/12/11 10:12:42;;;;;;;30.10;14.33;;;-3.30;99.80;;;;;;4966848;28;20447;-57
2022/12/11 10:15:27;;;;;;;28.63;13.70;;;-3.30;99.00;;;;;;4964784;28;21962;-56
2022/12/11 10:17:57;;;;;;;25.60;14.23;;;-3.30;99.50;;;;;;4978196;28;20874;-57
2022/12/11 10:20:25;;;;;;;28.27;14.40;;;-3.20;99.70;;;;;;4976306;28;20458;-57
2022/12/11 10:22:52;;;;;;;32.93;15.70;;;-3.10;99.90;;;;;;4964431;28;20443;-58
2022/12/11 10:25:28;;;;;;;33.87;15.20;;;-3.00;99.90;;;;;;4966486;28;20434;-56
2022/12/11 10:27:54;;;;;;;27.20;14.47;;;-2.90;99.60;;;;;;4964210;28;20459;-56
2022/12/11 10:30:28;;;;;;;33.17;15.67;;;-2.80;99.60;;;;;;4964873;28;20508;-57
2022/12/11 10:33:00;;;;;;;34.77;15.13;;;-2.80;99.30;;;;;;4964784;28;20198;-56
2022/12/11 10:35:35;;;;;;;30.80;15.67;;;-2.60;99.10;;;;;;4961888;28;20522;-57
2022/12/11 10:38:19;;;;;;;28.10;14.30;;;-2.60;98.40;;;;;;4964981;28;20445;-56
2022/12/11 10:40:49;;;;;;;26.73;14.60;;;-2.50;97.80;;;;;;4964716;28;20874;-57
2022/12/11 10:43:14;;;;;;;31.63;15.83;;;-2.40;96.10;;;;;;4965376;28;20446;-56
2022/12/11 10:45:52;;;;;;;32.53;14.40;;;-2.40;94.60;;;;;;4964473;28;20456;-57
2022/12/11 10:48:18;;;;;;;29.87;15.43;;;-2.40;95.20;;;;;;4977798;28;20184;-57
2022/12/11 10:50:54;;;;;;;31.20;15.00;;;-2.40;95.50;;;;;;4965041;28;21067;-56
2022/12/11 10:53:20;;;;;;;27.33;14.03;;;-2.40;97.60;;;;;;4964169;28;20203;-57
2022/12/11 10:55:47;;;;;;;33.67;16.00;;;-2.30;98.10;;;;;;4964064;28;20526;-56
2022/12/11 10:58:21;;;;;;;27.97;13.70;;;-2.20;97.10;;;;;;4962071;28;20453;-57
2022/12/11 11:01:00;;;;;;;25.87;13.43;;;-2.20;97.20;;;;;;4961091;28;20472;-57
2022/12/11 11:03:27;;;;;;;29.43;15.30;;;-2.10;95.90;;;;;;4961423;28;20467;-56
2022/12/11 11:06:11;;;;;;;31.77;14.70;;;-2.10;95.20;;;;;;4965861;28;20776;-57
2022/12/11 11:08:43;;;;;;;34.07;14.43;;;-2.00;96.00;;;;;;4963404;28;20436;-57
2022/12/11 11:11:23;;;;;;;29.23;15.73;;;-1.90;95.50;;;;;;4961202;28;20537;-56
2022/12/11 11:13:49;;;;;;;30.27;15.90;;;-1.80;95.70;;;;;;4954413;28;20467;-57
2022/12/11 11:16:19;;;;;;;31.80;16.77;;;-1.80;94.90;;;;;;4965686;28;20889;-57
2022/12/11 11:18:53;;;;;;;28.83;14.90;;;-1.70;94.20;;;;;;4964551;28;20432;-56
2022/12/11 11:21:22;;;;;;;28.07;14.47;;;-1.60;94.20;;;;;;4961607;28;20806;-57
2022/12/11 11:23:49;;;;;;;31.00;17.03;;;-1.60;95.20;;;;;;4962112;28;20445;-58
2022/12/11 11:26:15;;;;;;;34.20;16.77;;;-1.50;95.80;;;;;;4963213;28;20803;-56
2022/12/11 11:28:53;;;;;;;28.40;15.30;;;-1.50;95.10;;;;;;4964001;28;20436;-57
2022/12/11 11:31:28;;;;;;;33.30;16.27;;;-1.40;94.10;;;;;;4961272;28;20446;-56
2022/12/11 11:34:05;;;;;;;30.40;15.97;;;-1.50;95.00;;;;;;4963476;28;20482;-57
2022/12/11 11:36:34;;;;;;;34.00;16.20;;;-1.50;95.70;;;;;;4960382;28;21050;-58
2022/12/11 11:39:02;;;;;;;34.53;17.03;;;-1.50;96.10;;;;;;4960953;28;20445;-57
2022/12/11 11:41:54;;;;;;;41.27;16.10;;;-1.50;96.70;;;;;;4962128;28;20432;-57
2022/12/11 11:44:35;;;;;;;28.87;15.73;;;-1.60;97.80;;;;;;4962640;28;20836;-58
2022/12/11 11:47:12;;;;;;;35.23;17.03;;;-1.60;97.90;;;;;;4965465;28;20536;-57
2022/12/11 11:50:01;;;;;;;34.33;16.80;;;-1.60;98.10;;;;;;4962593;28;21054;-57
2022/12/11 11:53:00;;;;;;;33.60;15.87;;;-1.70;99.70;;;;;;4962900;28;20435;-57
2022/12/11 11:55:50;;;;;;;33.00;15.40;;;-1.70;99.90;;;;;;4948257;28;20431;-56
2022/12/11 11:58:26;;;;;;;31.57;15.20;;;-1.70;99.90;;;;;;4960415;28;20438;-56
2022/12/11 12:00:55;;;;;;;31.93;15.77;;;-1.70;99.90;;;;;;4959832;28;20435;-55
2022/12/11 12:03:23;;;;;;;29.27;15.67;;;-1.70;99.90;;;;;;4960244;28;20442;-57
2022/12/11 12:05:55;;;;;;;33.97;15.37;;;-1.60;99.90;;;;;;4963812;28;20436;-57
2022/12/11 12:08:27;;;;;;;33.77;15.90;;;-1.60;99.90;;;;;;4976795;28;21230;-57
2022/12/11 12:11:01;;;;;;;30.87;15.27;;;-1.50;99.90;;;;;;4975807;28;20846;-57
2022/12/11 12:13:48;;;;;;;29.80;15.13;;;-1.50;99.90;;;;;;4960300;28;20463;-57
2022/12/11 12:16:39;;;;;;;30.80;15.80;;;-1.50;99.90;;;;;;4964630;28;20459;-56
2022/12/11 12:19:34;;;;;;;32.30;16.37;;;-1.40;99.90;;;;;;4963168;28;20509;-58
2022/12/11 12:22:16;;;;;;;35.53;16.10;;;-1.40;99.90;;;;;;4965231;28;20420;-57
2022/12/11 12:25:01;;;;;;;28.50;15.93;;;-1.40;99.90;;;;;;4961868;28;20450;-56
2022/12/11 12:27:56;;;;;;;28.30;15.00;;;-1.30;99.90;;;;;;4959091;28;20454;-57
2022/12/11 12:30:22;;;;;;;31.17;15.57;;;-1.30;99.90;;;;;;4932301;28;21047;-56
2022/12/11 12:33:33;;;;;;;29.30;16.20;;;-1.20;99.90;;;;;;4960801;28;20524;-56
2022/12/11 12:36:09;;;;;;;39.43;16.57;;;-1.20;99.90;;;;;;4958932;28;20199;-57
2022/12/11 12:38:57;;;;;;;34.83;17.20;;;-1.20;99.90;;;;;;4961698;28;20479;-56
2022/12/11 12:41:41;;;;;;;34.87;17.03;;;-1.20;99.90;;;;;;4959972;28;20431;-57
2022/12/11 12:44:15;;;;;;;38.27;17.73;;;-1.20;99.90;;;;;;4962420;28;21008;-58
2022/12/11 12:47:04;;;;;;;29.43;16.30;;;-1.30;99.90;;;;;;4959257;28;20990;-57
2022/12/11 12:49:32;;;;;;;36.67;18.23;;;-1.30;99.90;;;;;;4962584;28;20440;-57
2022/12/11 12:51:59;;;;;;;35.87;16.73;;;-1.40;99.90;;;;;;4959740;28;20445;-57